Latest Weather Observations for Redcliffe

IDQ60901

Issued at 8:01 pm EST Saturday 4 July 2015 (issued every 10 minutes, with the page automatically refreshed every 10 minutes)

About weather observations | Map of Brisbane area stations | Latest observations for Brisbane area | Other Formats
Station Details ID: 040958 Name: REDCLIFFE Lat: -27.22 Lon: 153.09 Height: 12.6 m
Data from the previous 72 hours. | See also: Recent months at Redcliffe
Date/Time
EST
Tmp

°C
App
Tmp
°C
Dew
Point
°C
Rel
Hum
%
Delta-T

°C
Wind Press
QNH
hPa
Press
MSL
hPa
Rain
since
9 am
mm
Dir
 
Spd
km/h
Gust
km/h
Spd
kts
Gust
kts
04/08:00pm 13.9 12.4 11.8 87 1.1 NW 11 13 6 7 1022.3 1022.3 0.0
04/07:30pm 14.4 14.1 11.4 82 1.6 NNE 4 7 2 4 1021.9 1021.9 0.0
04/07:00pm 15.0 15.6 12.0 82 1.6 CALM 0 0 0 0 1021.6 1021.6 0.0
04/06:30pm 15.0 15.3 11.0 77 2.1 CALM 0 0 0 0 1021.2 1021.2 0.0
04/06:00pm 15.5 15.8 10.9 74 2.4 CALM 0 0 0 0 1020.9 1020.9 0.0
04/05:30pm 16.4 15.7 11.3 72 2.7 NE 6 7 3 4 1020.6 1020.6 0.0
04/05:00pm 17.1 15.9 10.2 64 3.6 NE 7 7 4 4 1020.4 1020.4 0.0
04/04:30pm 18.1 16.9 10.2 60 4.2 NE 7 9 4 5 1020.5 1020.5 0.0
04/04:00pm 18.5 17.1 10.8 61 4.1 NE 9 11 5 6 1020.5 1020.5 0.0
04/03:30pm 18.9 17.2 9.7 55 4.9 NNE 9 11 5 6 1020.7 1020.7 0.0
04/03:00pm 18.9 17.2 9.9 56 4.8 NE 9 11 5 6 1020.8 1020.8 0.0
04/02:30pm 19.2 17.4 9.4 53 5.2 ENE 9 11 5 6 1020.9 1020.9 0.0
04/02:00pm 19.4 17.6 9.6 53 5.2 ENE 9 11 5 6 1020.9 1020.9 0.0
04/01:30pm 19.0 17.7 10.0 56 4.8 SE 7 9 4 5 1021.2 1021.2 0.0
04/01:00pm 19.5 17.8 10.0 54 5.1 S 9 11 5 6 1021.5 1021.5 0.0
04/12:30pm 18.8 16.7 9.6 55 4.9 SSE 11 13 6 7 1021.9 1021.9 0.0
04/12:00pm 18.1 16.4 9.7 58 4.4 S 9 11 5 6 1022.6 1022.6 0.0
04/11:30am 17.9 15.1 8.5 54 4.8 S 13 17 7 9 1023.0 1023.0 0.0
04/11:00am 18.1 15.0 8.7 54 4.8 S 15 19 8 10 1023.3 1023.3 0.0
04/10:30am 17.3 14.5 10.0 62 3.8 SSW 15 20 8 11 1023.7 1023.7 0.0
04/10:00am 16.7 13.7 9.4 62 3.8 SW 15 20 8 11 1023.8 1023.8 0.0
04/09:30am 15.6 12.8 8.4 62 3.6 SW 13 19 7 10 1024.1 1024.1 0.0
04/08:30am 14.3 11.7 7.6 64 3.3 SW 11 19 6 10 1023.9 1023.9 0.0
04/08:00am 13.6 10.6 7.6 67 2.9 SW 13 17 7 9 1023.7 1023.7 0.0
04/07:30am 12.4 9.8 7.7 73 2.3 SW 11 15 6 8 1023.5 1023.5 0.0
04/07:00am 12.0 9.2 7.1 72 2.3 SW 11 15 6 8 1023.1 1023.1 0.0
04/06:30am 11.3 8.5 6.8 74 2.1 SW 11 17 6 9 1023.1 1023.1 0.0
04/06:00am 11.5 7.9 6.8 73 2.2 SW 15 19 8 10 1022.7 1022.7 0.0
04/05:30am 12.2 8.6 6.9 70 2.5 SW 15 20 8 11 1022.6 1022.6 0.0
04/05:00am 12.3 8.8 7.2 71 2.4 SW 15 20 8 11 1022.3 1022.3 0.0
04/04:30am 11.7 7.9 7.4 75 2.1 SSW 17 24 9 13 1022.1 1022.1 0.0
04/04:00am 11.3 8.3 7.6 78 1.8 SW 13 19 7 10 1022.2 1022.2 0.0
04/03:30am 11.6 9.4 7.7 77 1.9 WSW 9 11 5 6 1022.3 1022.3 0.0
04/03:00am 12.5 10.2 7.6 72 2.4 SW 9 11 5 6 1022.3 1022.3 0.0
04/02:30am 12.9 10.4 8.2 73 2.3 SW 11 13 6 7 1022.4 1022.4 0.0
04/02:00am 12.4 10.4 8.5 77 1.9 WSW 9 13 5 7 1022.6 1022.6 0.0
04/01:30am 12.4 9.9 8.1 75 2.1 W 11 15 6 8 1022.7 1022.7 0.0
04/01:00am 12.3 9.3 7.8 74 2.2 WSW 13 15 7 8 1022.9 1022.9 0.0
04/12:30am 11.7 9.0 7.4 75 2.1 WSW 11 11 6 6 1022.9 1022.9 0.0
04/12:00am 11.7 8.9 7.0 73 2.2 SW 11 13 6 7 1022.6 1022.6 0.0
 
Date/Time
EST
Tmp

°C
App
Tmp
°C
Dew
Point
°C
Rel
Hum
%
Delta-T

°C
Wind Press
QNH
hPa
Press
MSL
hPa
Rain
since
9 am
mm
Dir
 
Spd
km/h
Gust
km/h
Spd
kts
Gust
kts
03/11:30pm 11.8 9.0 6.9 72 2.3 SW 11 15 6 8 1023.1 1023.1 0.0
03/11:00pm 12.2 9.4 7.1 71 2.4 SW 11 15 6 8 1023.3 1023.3 0.0
03/10:30pm 12.4 9.3 7.3 71 2.5 SW 13 19 7 10 1023.6 1023.6 0.0
03/10:00pm 13.0 9.5 7.2 68 2.8 SSW 15 19 8 10 1023.7 1023.7 0.0
03/09:30pm 13.3 9.9 7.5 68 2.8 SW 15 19 8 10 1023.5 1023.5 0.0
03/09:00pm 12.7 10.0 7.2 69 2.6 WSW 11 15 6 8 1023.4 1023.4 0.0
03/08:30pm 12.9 10.2 7.4 69 2.7 WSW 11 13 6 7 1023.1 1023.1 0.0
03/08:00pm 13.4 10.3 7.2 66 3.0 SW 13 17 7 9 1023.1 1023.1 0.0
03/07:30pm 14.7 11.6 7.3 61 3.6 SSW 13 17 7 9 1022.9 1022.9 0.0
03/07:00pm 15.1 11.1 8.3 64 3.4 S 19 24 10 13 1022.6 1022.6 0.0
03/06:30pm 15.7 11.5 8.4 62 3.7 S 20 26 11 14 1022.2 1022.2 0.0
03/06:00pm 16.1 11.2 8.3 60 3.9 SSE 24 28 13 15 1021.9 1021.9 0.0
03/05:30pm 16.5 12.3 9.9 65 3.5 SE 22 26 12 14 1021.5 1021.5 0.0
03/05:00pm 16.9 12.2 9.3 61 3.9 SE 24 28 13 15 1021.3 1021.3 0.0
03/04:30pm 17.5 12.7 8.9 57 4.5 SSE 24 28 13 15 1021.2 1021.2 0.0
03/04:00pm 17.8 12.9 8.6 55 4.7 SE 24 28 13 15 1021.1 1021.1 0.0
03/03:30pm 18.1 12.9 8.9 55 4.8 SE 26 30 14 16 1020.9 1020.9 0.0
03/03:00pm 18.1 13.1 8.1 52 5.1 SE 24 28 13 15 1020.8 1020.8 0.0
03/02:30pm 18.0 13.4 8.0 52 5.1 SE 22 26 12 14 1020.7 1020.7 0.0
03/02:00pm 18.6 14.3 6.8 46 5.9 SSE 19 19 10 10 1020.6 1020.6 0.0
03/01:30pm 18.4 13.0 6.3 45 6.0 SSE 24 30 13 16 1020.7 1020.7 0.0
03/01:00pm 18.4 13.7 5.3 42 6.3 S 19 28 10 15 1020.9 1020.9 0.0
03/12:30pm 17.7 12.7 4.6 42 6.2 S 20 26 11 14 1021.4 1021.4 0.0
03/12:00pm 18.1 13.3 5.7 44 6.0 SSW 20 30 11 16 1021.6 1021.6 0.0
03/11:30am 17.2 11.8 4.5 43 6.0 SSW 22 32 12 17 1022.1 1022.1 0.0
03/11:00am 17.0 11.9 4.3 43 5.9 SSW 20 28 11 15 1022.3 1022.3 0.0
03/10:30am 16.3 11.2 4.0 44 5.7 SSW 20 26 11 14 1022.7 1022.7 0.0
03/10:00am 15.6 10.0 3.4 44 5.5 SW 22 32 12 17 1022.9 1022.9 0.0
03/09:30am 14.3 8.3 1.2 41 5.6 SW 22 30 12 16 1022.9 1022.9 0.0
03/09:00am 13.3 8.1 3.4 51 4.4 SW 20 28 11 15 1022.7 1022.7 0.0
03/08:30am 12.1 7.0 3.1 54 4.0 SW 19 26 10 14 1022.5 1022.5 0.0
03/08:00am 10.3 5.4 4.2 66 2.7 SW 19 26 10 14 1022.2 1022.2 0.0
03/07:30am 8.5 4.6 3.6 71 2.1 WSW 13 17 7 9 1022.1 1022.1 0.0
03/07:00am 7.6 3.7 3.6 76 1.7 SW 13 17 7 9 1021.8 1021.8 0.0
03/06:30am 6.9 3.4 3.5 79 1.4 WSW 11 15 6 8 1021.5 1021.5 0.0
03/06:00am 7.2 3.7 3.6 78 1.5 WSW 11 15 6 8 1021.0 1021.0 0.0
03/05:30am 7.6 3.7 3.6 76 1.7 WSW 13 17 7 9 1020.7 1020.7 0.0
03/05:00am 7.8 3.2 3.5 74 1.8 WSW 17 22 9 12 1020.3 1020.3 0.0
03/04:30am 7.9 3.3 3.8 75 1.8 WSW 17 26 9 14 1019.9 1019.9 0.0
03/04:00am 7.9 3.4 4.1 77 1.6 WSW 17 22 9 12 1019.8 1019.8 0.0
03/03:30am 7.8 3.3 4.2 78 1.6 WSW 17 20 9 11 1019.9 1019.9 0.0
03/03:00am 8.2 4.5 4.2 76 1.7 WSW 13 19 7 10 1019.9 1019.9 0.0
03/02:30am 8.9 5.9 4.1 72 2.1 WSW 9 13 5 7 1020.2 1020.2 0.0
03/02:00am 9.0 5.9 3.8 70 2.3 WSW 9 13 5 7 1020.1 1020.1 0.0
03/01:30am 9.2 5.7 3.6 68 2.4 W 11 15 6 8 1020.0 1020.0 0.0
03/01:00am 9.8 6.0 4.0 67 2.5 WNW 13 17 7 9 1020.3 1020.3 0.0
03/12:30am 9.6 5.7 3.6 66 2.6 W 13 19 7 10 1020.2 1020.2 0.0
03/12:00am 10.0 6.5 3.5 64 2.8 WNW 11 17 6 9 1020.2 1020.2 0.0
 
Date/Time
EST
Tmp

°C
App
Tmp
°C
Dew
Point
°C
Rel
Hum
%
Delta-T

°C
Wind Press
QNH
hPa
Press
MSL
hPa
Rain
since
9 am
mm
Dir
 
Spd
km/h
Gust
km/h
Spd
kts
Gust
kts
02/11:30pm 9.9 6.0 3.6 65 2.7 WSW 13 17 7 9 1020.5 1020.5 0.0
02/11:00pm 10.1 7.0 3.6 64 2.8 WSW 9 13 5 7 1020.6 1020.6 0.0
02/10:30pm 10.6 7.4 2.9 59 3.3 W 9 11 5 6 1020.3 1020.3 0.0
02/10:00pm 11.6 8.6 2.1 52 4.1 W 7 9 4 5 1020.0 1020.0 0.0
02/09:30pm 11.8 8.8 2.0 51 4.2 WNW 7 9 4 5 1019.7 1019.7 0.0
02/09:00pm 12.5 9.0 1.5 47 4.7 WSW 9 11 5 6 1019.8 1019.8 0.0
02/08:30pm 13.3 8.3 1.3 44 5.1 W 17 20 9 11 1019.7 1019.7 0.0
02/08:00pm 13.1 8.7 2.6 49 4.6 W 15 19 8 10 1019.4 1019.4 0.0
02/07:30pm 12.7 9.6 3.4 53 4.1 WNW 9 15 5 8 1019.1 1019.1 0.0
02/07:00pm 13.5 9.9 3.0 49 4.7 WNW 11 13 6 7 1019.0 1019.0 0.0
02/06:30pm 14.5 10.4 2.4 44 5.4 W 13 13 7 7 1019.0 1019.0 0.0
02/06:00pm 15.0 10.8 1.9 41 5.7 W 13 19 7 10 1018.9 1018.9 0.0
02/05:30pm 15.1 11.8 2.3 42 5.7 WNW 9 15 5 8 1018.5 1018.5 0.0
02/05:00pm 16.3 12.8 3.4 42 5.9 W 11 13 6 7 1018.2 1018.2 0.0
02/04:30pm 17.3 13.8 3.6 40 6.4 WSW 11 20 6 11 1018.3 1018.3 0.0
02/04:00pm 18.0 13.5 4.2 40 6.5 WSW 17 24 9 13 1018.1 1018.1 0.0
02/03:30pm 18.3 14.1 5.5 43 6.2 W 17 22 9 12 1017.9 1017.9 0.0
02/03:00pm 18.7 13.9 4.5 39 6.8 W 19 26 10 14 1018.0 1018.0 0.0
02/02:30pm 18.6 14.4 5.8 43 6.3 W 17 24 9 13 1018.0 1018.0 0.0
02/02:00pm 18.8 15.0 6.0 43 6.3 W 15 24 8 13 1018.2 1018.2 0.0
02/01:30pm 18.3 13.1 5.5 43 6.2 W 22 30 12 16 1018.4 1018.4 0.0
02/01:00pm 18.9 14.8 6.4 44 6.2 WNW 17 26 9 14 1018.6 1018.6 0.0
02/12:30pm 18.7 14.2 5.9 43 6.3 W 19 24 10 13 1019.2 1019.2 0.0
02/12:00pm 18.7 14.8 6.9 46 5.9 W 17 28 9 15 1019.7 1019.7 0.0
02/11:30am 18.8 15.2 8.2 50 5.5 W 17 26 9 14 1020.4 1020.4 0.0
02/11:00am 18.6 15.3 9.4 55 4.8 WSW 17 24 9 13 1020.8 1020.8 0.0
02/10:30am 17.8 14.5 9.7 59 4.3 W 17 22 9 12 1021.5 1021.5 0.0
02/10:00am 17.2 14.3 9.6 61 4.0 WSW 15 20 8 11 1021.9 1021.9 0.0
02/09:30am 16.2 12.8 9.2 63 3.6 WSW 17 20 9 11 1022.3 1022.3 0.0
02/09:00am 15.5 13.0 9.6 68 3.0 WNW 13 19 7 10 1022.1 1022.1 0.0
02/08:30am 14.6 12.1 9.6 72 2.6 WSW 13 19 7 10 1021.8 1021.8 0.0
02/08:00am 13.3 10.8 9.7 79 1.8 WSW 13 17 7 9 1021.5 1021.5 0.0
02/07:30am 12.6 10.3 9.1 79 1.8 W 11 15 6 8 1021.2 1021.2 0.0
02/07:00am 11.8 9.6 9.2 84 1.3 W 11 15 6 8 1021.2 1021.2 0.0
02/06:30am 11.1 9.6 9.2 88 0.9 W 7 9 4 5 1021.1 1021.1 0.0
02/06:00am 11.1 9.7 9.0 87 1.0 WSW 6 11 3 6 1020.8 1020.8 0.0
02/05:30am 11.6 10.3 9.2 85 1.2 WSW 6 7 3 4 1020.6 1020.6 0.0
02/05:00am 11.8 9.6 9.4 85 1.2 WSW 11 15 6 8 1020.4 1020.4 0.0
02/04:30am 11.9 10.1 9.5 85 1.2 W 9 11 5 6 1020.5 1020.5 0.0
02/04:00am 12.1 10.0 9.8 86 1.2 WSW 11 15 6 8 1020.5 1020.5 0.0
02/03:30am 11.6 9.8 9.3 86 1.2 WSW 9 13 5 7 1020.7 1020.7 0.0
02/03:00am 12.0 10.5 9.2 83 1.4 WSW 7 9 4 5 1020.9 1020.9 0.0
02/02:30am 12.9 11.6 9.9 82 1.5 WNW 7 9 4 5 1021.0 1021.0 0.0
02/02:00am 13.4 11.7 9.8 79 1.8 W 9 11 5 6 1020.8 1020.8 0.0
02/01:30am 13.6 11.5 9.8 78 2.0 W 11 13 6 7 1021.2 1021.2 0.0
02/01:00am 13.6 11.5 9.8 78 1.9 WNW 11 15 6 8 1021.4 1021.4 0.0
02/12:30am 14.0 11.5 9.6 75 2.3 WNW 13 15 7 8 1021.5 1021.5 0.0
02/12:00am 14.2 10.9 9.6 74 2.4 W 17 22 9 12 1021.8 1021.8 0.0
 
Date/Time
EST
Tmp

°C
App
Tmp
°C
Dew
Point
°C
Rel
Hum
%
Delta-T

°C
Wind Press
QNH
hPa
Press
MSL
hPa
Rain
since
9 am
mm
Dir
 
Spd
km/h
Gust
km/h
Spd
kts
Gust
kts
01/11:30pm 14.2 11.3 9.6 74 2.4 W 15 17 8 9 1021.9 1021.9 0.0
01/11:00pm 14.8 12.3 9.8 72 2.6 W 13 15 7 8 1022.2 1022.2 0.0
01/10:30pm 15.3 13.3 10.1 71 2.7 W 11 15 6 8 1022.1 1022.1 0.0
01/10:00pm 15.5 13.1 10.1 70 2.8 W 13 17 7 9 1022.4 1022.4 0.0
01/09:30pm 15.8 14.7 10.8 72 2.7 WSW 7 9 4 5 1022.5 1022.5 0.0
01/09:00pm 15.8 14.5 11.4 75 2.4 SSW 9 11 5 6 1022.6 1022.6 0.0
01/08:30pm 16.3 15.9 12.5 78 2.1 WSW 6 9 3 5 1022.2 1022.2 0.0

Latest Capital City Observations: Canberra | Sydney | Melbourne | Brisbane | Adelaide | Perth | Hobart | Darwin

Other Formats:

Comma delimited format used in spreadsheet applications
http://www.bom.gov.au/fwo/IDQ60901/IDQ60901.95591.axf

JavaScript Object Notation format (JSON) in row-major order
http://www.bom.gov.au/fwo/IDQ60901/IDQ60901.95591.json